Time;durP1;ratioP1;P1;durP2;ratioP2;P2;SDS_P1;SDS_P2;PMS_P1;PMS_P2;Temp;Humidity;BMP_temperature;BMP_pressure;BME280_temperature;BME280_humidity;BME280_pressure;Samples;Min_cycle;Max_cycle;Signal;HPM_P1;HPM_P2
2022/04/28 00:00:55;;;;;;;9.23;8.43;;;10.60;99.90;;;;;;10401915;28;20229;-82
2022/04/28 00:05:58;;;;;;;9.20;8.40;;;10.50;99.90;;;;;;10418934;28;20686;-82
2022/04/28 00:11:01;;;;;;;9.77;8.97;;;10.50;99.90;;;;;;10401946;28;20226;-82
2022/04/28 00:16:03;;;;;;;9.50;8.70;;;10.50;99.90;;;;;;10385298;28;20213;-82
2022/04/28 00:21:06;;;;;;;9.57;8.80;;;10.40;99.90;;;;;;10416216;28;20293;-82
2022/04/28 00:26:08;;;;;;;8.93;8.03;;;10.40;99.90;;;;;;10407370;28;20579;-82
2022/04/28 00:31:11;;;;;;;9.40;8.70;;;10.30;99.90;;;;;;10401085;28;20218;-81
2022/04/28 00:36:14;;;;;;;10.10;9.20;;;10.30;99.90;;;;;;10404044;28;20198;-81
2022/04/28 00:41:17;;;;;;;9.07;8.33;;;10.20;99.90;;;;;;10395959;28;20218;-80
2022/04/28 00:46:20;;;;;;;9.63;8.83;;;10.20;99.90;;;;;;10391150;28;20201;-79
2022/04/28 00:51:24;;;;;;;9.57;8.77;;;10.10;99.90;;;;;;10384504;28;20222;-79
2022/04/28 00:56:27;;;;;;;11.13;9.07;;;10.10;99.90;;;;;;10376812;28;20260;-79
2022/04/28 01:01:29;;;;;;;9.67;8.87;;;10.00;99.90;;;;;;10384788;28;20300;-79
2022/04/28 01:06:33;;;;;;;9.50;8.70;;;10.00;99.90;;;;;;10362647;28;20213;-81
2022/04/28 01:11:36;;;;;;;9.93;9.00;;;10.00;99.90;;;;;;10364103;28;20293;-79
2022/04/28 01:16:47;;;;;;;9.97;9.17;;;9.90;99.90;;;;;;10387169;28;20604;-82
2022/04/28 01:21:52;;;;;;;9.97;9.00;;;9.90;99.90;;;;;;10387213;28;20305;-81
2022/04/28 01:26:55;;;;;;;8.90;8.20;;;9.90;99.90;;;;;;10394618;28;20209;-79
2022/04/28 01:31:58;;;;;;;10.13;9.20;;;9.90;99.90;;;;;;10399911;28;20304;-81
2022/04/28 01:37:02;;;;;;;11.30;8.90;;;9.90;99.90;;;;;;10366110;28;20551;-82
2022/04/28 01:42:05;;;;;;;9.40;8.70;;;9.90;99.90;;;;;;10376687;28;20304;-80
2022/04/28 01:47:08;;;;;;;9.70;8.80;;;9.90;99.90;;;;;;10383686;28;20217;-81
2022/04/28 01:58:33;;;;;;;9.63;8.83;;;9.80;99.90;;;;;;10376891;28;20229;-81
2022/04/28 02:03:48;;;;;;;9.40;8.70;;;9.80;99.90;;;;;;10361895;28;20209;-78
2022/04/28 02:08:51;;;;;;;10.03;9.13;;;9.80;99.90;;;;;;10391453;28;20242;-78
2022/04/28 02:13:54;;;;;;;10.00;9.20;;;9.70;99.90;;;;;;10380208;28;20222;-78
2022/04/28 02:19:19;;;;;;;9.93;9.03;;;9.70;99.90;;;;;;10341634;28;20230;-81
2022/04/28 02:24:23;;;;;;;10.13;9.33;;;9.60;99.90;;;;;;10356544;28;20225;-82
2022/04/28 02:29:25;;;;;;;9.63;8.90;;;9.60;99.90;;;;;;10379927;28;20237;-81
2022/04/28 02:34:28;;;;;;;10.03;9.17;;;9.60;99.90;;;;;;10389638;28;20261;-82
2022/04/28 02:39:32;;;;;;;10.70;9.90;;;9.60;99.90;;;;;;10367753;28;20702;-79
2022/04/28 02:44:35;;;;;;;11.23;10.23;;;9.50;99.90;;;;;;10395418;28;20210;-82
2022/04/28 02:49:40;;;;;;;11.80;10.40;;;9.50;99.90;;;;;;10384147;28;20300;-82
2022/04/28 02:54:46;;;;;;;10.80;9.77;;;9.50;99.90;;;;;;10388962;28;20224;-82
2022/04/28 02:59:48;;;;;;;11.10;9.83;;;9.40;99.90;;;;;;10379859;28;20225;-82
2022/04/28 03:04:50;;;;;;;11.40;10.40;;;9.40;99.90;;;;;;10392603;28;20214;-80
2022/04/28 03:15:14;;;;;;;11.30;10.40;;;9.30;99.90;;;;;;10399357;28;20665;-83
2022/04/28 03:20:16;;;;;;;10.90;10.00;;;9.20;99.90;;;;;;10397377;28;20225;-79
2022/04/28 03:25:20;;;;;;;10.60;9.60;;;9.20;99.90;;;;;;10380784;28;20281;-83
2022/04/28 03:30:22;;;;;;;12.43;11.37;;;9.20;99.90;;;;;;10385084;28;20305;-81
2022/04/28 03:35:42;;;;;;;11.70;10.60;;;9.10;99.90;;;;;;10389384;28;20198;-82
2022/04/28 03:40:48;;;;;;;11.70;10.60;;;9.10;99.90;;;;;;10423525;28;20686;-82
2022/04/28 03:45:51;;;;;;;12.17;11.07;;;9.10;99.90;;;;;;10406517;28;20209;-82
2022/04/28 03:50:57;;;;;;;12.57;11.47;;;9.10;99.90;;;;;;10387313;28;20225;-82
2022/04/28 03:56:01;;;;;;;14.93;12.70;;;9.10;99.90;;;;;;10366099;28;20206;-83
2022/04/28 04:01:03;;;;;;;12.57;11.50;;;9.10;99.90;;;;;;10408929;28;20210;-80
2022/04/28 04:06:23;;;;;;;14.00;12.70;;;9.00;99.90;;;;;;10385713;28;20817;-79
2022/04/28 04:11:47;;;;;;;31.20;24.03;;;9.00;99.90;;;;;;10397767;28;20218;-78
2022/04/28 04:16:49;;;;;;;26.50;21.93;;;9.00;99.90;;;;;;10371802;28;20285;-81
2022/04/28 04:22:00;;;;;;;20.87;18.70;;;9.00;99.90;;;;;;10373468;28;20260;-80
2022/04/28 04:27:04;;;;;;;15.33;13.73;;;9.00;99.90;;;;;;10363043;28;20203;-81
2022/04/28 04:32:29;;;;;;;14.20;13.00;;;9.00;99.90;;;;;;10391701;28;20285;-82
2022/04/28 04:37:40;;;;;;;16.40;14.87;;;9.00;99.90;;;;;;10385521;28;20194;-82
2022/04/28 04:42:43;;;;;;;15.70;14.30;;;9.00;99.90;;;;;;10376156;28;20224;-81
2022/04/28 04:47:46;;;;;;;16.53;14.93;;;9.00;99.90;;;;;;10405152;28;20654;-80
2022/04/28 04:52:53;;;;;;;14.87;13.67;;;9.10;99.90;;;;;;10403155;28;20585;-80
2022/04/28 04:58:02;;;;;;;15.07;13.67;;;9.10;99.90;;;;;;10372871;28;20222;-79
2022/04/28 05:03:05;;;;;;;15.90;14.40;;;9.10;99.90;;;;;;10369050;28;20207;-78
2022/04/28 05:08:45;;;;;;;17.37;15.77;;;9.20;99.90;;;;;;10217201;29;20268;-81
2022/04/28 05:13:50;;;;;;;19.60;17.90;;;9.20;99.90;;;;;;10362503;28;20229;-80
2022/04/28 05:18:53;;;;;;;18.17;16.47;;;9.20;99.90;;;;;;10391119;28;20222;-81
2022/04/28 05:24:18;;;;;;;18.23;16.63;;;9.30;99.90;;;;;;10379056;28;20238;-81
2022/04/28 05:30:00;;;;;;;16.27;14.87;;;9.40;99.90;;;;;;10318104;28;20227;-81
2022/04/28 05:35:41;;;;;;;16.10;14.70;;;9.40;99.90;;;;;;10386611;28;20686;-81
2022/04/28 05:40:44;;;;;;;16.30;14.70;;;9.50;99.90;;;;;;10397869;28;20672;-81
2022/04/28 05:45:48;;;;;;;16.53;14.83;;;9.50;99.90;;;;;;10407526;28;20233;-81
2022/04/28 05:50:52;;;;;;;17.43;15.80;;;9.50;99.90;;;;;;10415672;28;20244;-81
2022/04/28 05:55:55;;;;;;;16.63;15.00;;;9.60;99.90;;;;;;10402215;28;20260;-78
2022/04/28 06:01:03;;;;;;;18.30;16.50;;;9.70;99.90;;;;;;10412044;28;20225;-78
2022/04/28 06:06:08;;;;;;;19.53;17.57;;;9.80;99.90;;;;;;10394807;28;20197;-78
2022/04/28 06:11:10;;;;;;;17.93;16.30;;;9.80;99.90;;;;;;10388743;28;20256;-80
2022/04/28 06:16:14;;;;;;;17.93;16.33;;;9.90;99.90;;;;;;10396987;28;20260;-78
2022/04/28 06:21:30;;;;;;;19.63;17.40;;;10.00;99.90;;;;;;10388209;28;20703;-78
2022/04/28 06:26:32;;;;;;;16.67;15.07;;;10.10;99.90;;;;;;10387102;28;20206;-78
2022/04/28 06:31:36;;;;;;;18.20;16.50;;;10.20;99.90;;;;;;10385555;28;20214;-79
2022/04/28 06:36:54;;;;;;;19.07;17.17;;;10.30;99.90;;;;;;10406023;28;20206;-80
2022/04/28 06:41:56;;;;;;;16.60;15.10;;;10.40;99.90;;;;;;10392277;28;20253;-80
2022/04/28 06:47:21;;;;;;;18.80;17.20;;;10.50;99.90;;;;;;10408544;28;20194;-82
2022/04/28 06:53:01;;;;;;;20.20;18.20;;;10.60;99.90;;;;;;10265243;28;20266;-79
2022/04/28 06:58:09;;;;;;;19.33;17.40;;;10.80;99.90;;;;;;10368192;28;20764;-81
2022/04/28 07:03:18;;;;;;;18.73;17.07;;;10.90;99.90;;;;;;10392661;28;20261;-78
2022/04/28 07:08:21;;;;;;;18.90;17.30;;;11.00;99.90;;;;;;10396038;28;20237;-79
2022/04/28 07:13:24;;;;;;;17.83;16.30;;;11.20;99.90;;;;;;10387108;28;20280;-80
2022/04/28 07:18:57;;;;;;;18.67;16.87;;;11.30;99.90;;;;;;10390548;28;20218;-80
2022/04/28 07:23:59;;;;;;;17.90;16.30;;;11.40;99.90;;;;;;10390701;28;20222;-82
2022/04/28 07:29:03;;;;;;;15.10;13.80;;;11.60;99.90;;;;;;10396209;28;20225;-81
2022/04/28 07:34:24;;;;;;;14.73;13.43;;;11.80;99.90;;;;;;10424021;28;20271;-80
2022/04/28 07:39:45;;;;;;;14.10;12.87;;;12.10;99.90;;;;;;10414798;28;20249;-82
2022/04/28 07:44:56;;;;;;;14.40;13.20;;;12.30;99.90;;;;;;10396150;28;20761;-82
2022/04/28 07:50:00;;;;;;;13.00;11.80;;;12.60;99.90;;;;;;10399549;28;20300;-80
2022/04/28 07:55:03;;;;;;;12.17;11.07;;;12.90;99.90;;;;;;10419536;28;20194;-79
2022/04/28 08:00:07;;;;;;;11.30;10.40;;;13.10;99.90;;;;;;10414440;28;20213;-79
2022/04/28 08:05:19;;;;;;;12.60;11.30;;;13.40;99.90;;;;;;10413405;28;20666;-84
2022/04/28 08:10:21;;;;;;;10.70;9.80;;;13.60;99.90;;;;;;10402077;28;20222;-81
2022/04/28 08:15:24;;;;;;;10.30;9.27;;;13.90;99.90;;;;;;10398504;28;20198;-81
2022/04/28 08:20:27;;;;;;;9.40;8.70;;;14.10;99.90;;;;;;10406535;28;20226;-82
2022/04/28 08:25:31;;;;;;;8.33;7.73;;;14.40;99.90;;;;;;10403947;28;20213;-80
2022/04/28 08:30:34;;;;;;;9.37;8.43;;;14.60;99.90;;;;;;10384962;28;20325;-81
2022/04/28 08:35:39;;;;;;;7.90;7.30;;;14.90;99.90;;;;;;10403240;28;20556;-81
2022/04/28 08:40:43;;;;;;;6.50;6.00;;;15.10;99.90;;;;;;10404661;28;20279;-80
2022/04/28 08:51:28;;;;;;;6.60;6.10;;;15.60;99.90;;;;;;10420153;28;20236;-80
2022/04/28 08:56:35;;;;;;;6.73;6.03;;;15.90;99.90;;;;;;10399698;28;20709;-78
2022/04/28 09:01:40;;;;;;;6.90;6.40;;;16.10;99.90;;;;;;10390754;28;20313;-81
2022/04/28 09:07:02;;;;;;;6.90;6.40;;;16.30;99.90;;;;;;10394964;28;20208;-82
2022/04/28 09:12:21;;;;;;;6.70;5.53;;;16.60;99.90;;;;;;10386051;28;20226;-79
2022/04/28 09:17:43;;;;;;;6.40;5.90;;;16.80;99.90;;;;;;10403309;28;20205;-81
2022/04/28 09:22:55;;;;;;;5.07;4.77;;;17.00;99.90;;;;;;10390814;28;20222;-82
2022/04/28 09:28:05;;;;;;;4.87;4.57;;;17.50;99.90;;;;;;10384815;28;20233;-81
2022/04/28 09:33:10;;;;;;;5.30;4.87;;;18.10;99.60;;;;;;10386296;28;20284;-79
2022/04/28 09:38:31;;;;;;;5.30;4.80;;;18.20;99.10;;;;;;10385508;28;20297;-80
2022/04/28 09:43:35;;;;;;;4.80;4.47;;;18.10;96.40;;;;;;10365297;28;20245;-78
2022/04/28 09:48:37;;;;;;;5.43;4.13;;;18.00;96.30;;;;;;10407918;28;20229;-81
2022/04/28 09:53:44;;;;;;;5.23;4.73;;;17.90;94.40;;;;;;10368481;28;20299;-80
2022/04/28 09:59:06;;;;;;;4.27;3.87;;;17.80;95.10;;;;;;10400915;28;20221;-81
2022/04/28 10:04:10;;;;;;;4.90;4.40;;;17.90;94.50;;;;;;10379136;28;20592;-80
2022/04/28 10:09:45;;;;;;;4.30;3.93;;;17.90;91.30;;;;;;10397493;28;20229;-80
2022/04/28 10:14:50;;;;;;;4.03;3.83;;;18.10;93.50;;;;;;10383987;28;20206;-81
2022/04/28 10:19:56;;;;;;;4.90;4.53;;;18.10;94.40;;;;;;10387138;28;20248;-81
2022/04/28 10:36:15;;;;;;;5.70;5.20;;;17.50;91.10;;;;;;10388159;28;20197;-80
2022/04/28 10:41:28;;;;;;;4.50;4.10;;;17.30;88.40;;;;;;10387195;28;20299;-81
2022/04/28 10:46:32;;;;;;;4.47;4.17;;;17.20;91.10;;;;;;10396185;28;20708;-81
2022/04/28 10:51:34;;;;;;;3.80;3.60;;;17.10;83.40;;;;;;10388563;28;20576;-81
2022/04/28 10:57:01;;;;;;;5.00;4.70;;;16.90;84.30;;;;;;10391717;28;20222;-80
2022/04/28 11:02:51;;;;;;;4.23;3.70;;;16.90;90.50;;;;;;10409649;28;20581;-78
2022/04/28 11:07:54;;;;;;;4.60;4.40;;;16.80;90.90;;;;;;10415745;28;20213;-82
2022/04/28 11:13:08;;;;;;;5.70;4.23;;;16.70;92.90;;;;;;10426758;28;20625;-82
2022/04/28 11:18:11;;;;;;;4.43;4.17;;;16.70;90.70;;;;;;10398171;28;20707;-82
2022/04/28 11:23:13;;;;;;;4.40;4.10;;;16.70;86.70;;;;;;10386628;28;21118;-81
2022/04/28 11:28:17;;;;;;;4.23;3.83;;;16.80;82.00;;;;;;10433225;23;20289;-80
2022/04/28 11:33:22;;;;;;;4.40;4.10;;;16.70;87.00;;;;;;10386209;28;20195;-79
2022/04/28 11:38:26;;;;;;;4.80;4.50;;;16.70;90.10;;;;;;10369876;28;20227;-80
2022/04/28 11:43:36;;;;;;;4.37;4.07;;;16.70;84.60;;;;;;10383892;28;20226;-80
2022/04/28 11:48:38;;;;;;;5.07;4.77;;;16.60;88.50;;;;;;10382546;28;20218;-78
2022/04/28 11:53:42;;;;;;;4.83;4.40;;;16.70;87.20;;;;;;10366781;28;20203;-78
2022/04/28 11:58:49;;;;;;;4.67;4.33;;;16.60;93.60;;;;;;10362060;28;20656;-78
2022/04/28 12:03:53;;;;;;;4.53;4.23;;;16.50;91.90;;;;;;10361623;28;20230;-78
2022/04/28 12:08:58;;;;;;;4.57;4.30;;;16.50;85.60;;;;;;10370905;28;20230;-77
2022/04/28 12:19:20;;;;;;;4.10;3.80;;;16.60;88.30;;;;;;10370692;28;20309;-79
2022/04/28 12:24:23;;;;;;;4.47;4.17;;;16.70;85.80;;;;;;10373735;28;20607;-79
2022/04/28 12:29:27;;;;;;;4.20;4.00;;;16.80;80.70;;;;;;10375111;28;20222;-78
2022/04/28 12:34:29;;;;;;;4.40;4.10;;;16.80;79.80;;;;;;10369404;28;20257;-78
2022/04/28 12:39:55;;;;;;;4.47;4.07;;;16.90;82.70;;;;;;10366950;28;20668;-78
2022/04/28 12:45:00;;;;;;;3.67;3.47;;;16.90;83.30;;;;;;10368824;28;20313;-79
2022/04/28 12:50:19;;;;;;;4.60;4.30;;;16.90;86.40;;;;;;10376198;28;20219;-79
2022/04/28 12:55:22;;;;;;;4.77;4.20;;;17.00;79.60;;;;;;10376322;28;20194;-79
2022/04/28 13:00:25;;;;;;;4.17;3.87;;;17.00;86.20;;;;;;10384048;28;20222;-78
2022/04/28 13:05:28;;;;;;;4.30;4.00;;;17.00;91.60;;;;;;10379504;28;20214;-79
2022/04/28 13:10:30;;;;;;;3.87;3.67;;;17.00;81.00;;;;;;10378687;28;20223;-79
2022/04/28 13:15:34;;;;;;;4.07;3.80;;;17.10;79.20;;;;;;10365119;28;20729;-79
2022/04/28 13:20:39;;;;;;;4.47;4.07;;;17.10;90.90;;;;;;10377730;28;20234;-79
2022/04/28 13:25:41;;;;;;;3.70;3.50;;;17.00;90.20;;;;;;10378849;28;20225;-79
2022/04/28 13:30:45;;;;;;;4.50;4.20;;;17.00;83.70;;;;;;10377718;28;20238;-79
2022/04/28 13:35:48;;;;;;;4.00;3.80;;;17.10;84.50;;;;;;10376712;28;20198;-78
2022/04/28 13:40:50;;;;;;;4.40;4.10;;;17.10;90.80;;;;;;10377042;28;20276;-79
2022/04/28 13:45:53;;;;;;;3.57;3.27;;;17.10;83.40;;;;;;10381722;28;20646;-78
2022/04/28 13:50:55;;;;;;;3.40;3.20;;;17.30;72.10;;;;;;10379647;28;20678;-79
2022/04/28 13:56:00;;;;;;;3.90;3.60;;;17.30;81.00;;;;;;10377280;28;20674;-78
2022/04/28 14:01:04;;;;;;;4.60;4.20;;;17.40;79.80;;;;;;10377878;28;20252;-78
2022/04/28 14:06:07;;;;;;;3.93;3.67;;;17.40;75.70;;;;;;10376703;28;20576;-78
2022/04/28 14:11:10;;;;;;;3.50;3.30;;;17.50;81.00;;;;;;10378074;28;20276;-79
2022/04/28 14:16:13;;;;;;;3.43;3.13;;;17.50;76.30;;;;;;10375219;28;20205;-79
2022/04/28 14:21:16;;;;;;;4.23;3.83;;;17.60;76.30;;;;;;10368243;28;20246;-80
2022/04/28 14:26:18;;;;;;;4.00;3.70;;;17.60;81.90;;;;;;10379136;28;20664;-79
2022/04/28 14:31:22;;;;;;;4.00;3.70;;;17.60;75.90;;;;;;10382145;28;20238;-79
2022/04/28 14:36:24;;;;;;;3.70;3.37;;;17.60;88.90;;;;;;10386950;28;20217;-79
2022/04/28 14:41:26;;;;;;;3.63;3.43;;;17.50;80.30;;;;;;10384198;28;20318;-79
2022/04/28 14:46:30;;;;;;;3.77;3.50;;;17.50;89.80;;;;;;10366413;28;20292;-78
2022/04/28 14:56:52;;;;;;;4.27;3.97;;;17.60;84.60;;;;;;10375606;28;20232;-80
2022/04/28 15:01:58;;;;;;;4.20;3.90;;;17.50;92.70;;;;;;10386182;28;20219;-79
2022/04/28 15:07:00;;;;;;;4.10;3.90;;;17.40;86.90;;;;;;10374720;28;20309;-80
2022/04/28 15:12:03;;;;;;;4.17;3.87;;;17.40;91.40;;;;;;10350280;28;20586;-80
2022/04/28 15:17:09;;;;;;;3.83;3.63;;;17.30;91.70;;;;;;10367368;28;20222;-80
2022/04/28 15:22:11;;;;;;;4.20;3.80;;;17.30;83.30;;;;;;10364046;28;20663;-79
2022/04/28 15:27:13;;;;;;;3.80;3.60;;;17.30;90.10;;;;;;10359965;28;20233;-80
2022/04/28 15:32:17;;;;;;;4.53;4.23;;;17.30;86.90;;;;;;10356839;28;20649;-79
2022/04/28 15:37:21;;;;;;;4.97;4.47;;;17.40;88.40;;;;;;10354963;28;20219;-80
2022/04/28 15:42:35;;;;;;;4.80;4.40;;;17.40;89.40;;;;;;10384546;28;20249;-79
2022/04/28 15:47:45;;;;;;;4.70;4.30;;;17.40;91.30;;;;;;10373128;28;20237;-80
2022/04/28 15:52:49;;;;;;;4.60;4.30;;;17.30;95.80;;;;;;10365899;28;20880;-79
2022/04/28 15:57:52;;;;;;;4.40;4.10;;;17.10;94.10;;;;;;10369316;28;20199;-80
2022/04/28 16:02:55;;;;;;;4.33;3.93;;;17.10;93.30;;;;;;10369182;28;20720;-79
2022/04/28 16:07:57;;;;;;;4.43;3.90;;;17.10;88.30;;;;;;10368138;28;20209;-79
2022/04/28 16:12:59;;;;;;;3.77;3.50;;;17.10;89.50;;;;;;10363365;28;20211;-80
2022/04/28 16:18:03;;;;;;;4.83;4.43;;;17.10;90.20;;;;;;10367621;28;20293;-80
2022/04/28 16:23:07;;;;;;;4.23;3.93;;;17.20;81.10;;;;;;10378955;28;20269;-79
2022/04/28 16:28:11;;;;;;;4.80;4.13;;;17.20;78.50;;;;;;10384340;28;20290;-80
2022/04/28 16:33:14;;;;;;;3.97;3.67;;;17.30;82.30;;;;;;10382228;28;20202;-80
2022/04/28 16:38:16;;;;;;;4.37;4.00;;;17.30;90.70;;;;;;10361819;28;20199;-80
2022/04/28 16:43:19;;;;;;;4.33;4.03;;;17.30;91.50;;;;;;10364147;28;20598;-80
2022/04/28 16:48:22;;;;;;;4.00;3.80;;;17.20;95.20;;;;;;10371171;28;20272;-80
2022/04/28 16:53:26;;;;;;;4.73;4.43;;;17.10;93.70;;;;;;10379075;28;20221;-80
2022/04/28 16:58:28;;;;;;;5.00;4.57;;;17.00;88.90;;;;;;10373889;28;20219;-79
2022/04/28 17:08:51;;;;;;;4.67;3.83;;;16.90;93.50;;;;;;10381901;28;20218;-79
2022/04/28 17:13:55;;;;;;;4.43;4.13;;;16.90;92.00;;;;;;10371013;28;20194;-80
2022/04/28 17:18:59;;;;;;;4.60;4.20;;;16.80;92.60;;;;;;10375200;28;20632;-80
2022/04/28 17:24:01;;;;;;;4.27;3.87;;;16.80;96.60;;;;;;10343573;28;20218;-80
2022/04/28 17:29:09;;;;;;;4.10;3.80;;;16.70;98.60;;;;;;10392695;23;20982;-83
2022/04/28 17:34:15;;;;;;;4.77;4.30;;;16.60;96.20;;;;;;10395661;28;20198;-81
2022/04/28 17:39:18;;;;;;;4.10;3.90;;;16.50;98.90;;;;;;10395759;28;20708;-81
2022/04/28 17:44:20;;;;;;;4.60;4.20;;;16.40;95.30;;;;;;10395775;28;20225;-81
2022/04/28 17:49:24;;;;;;;5.17;4.77;;;16.40;98.00;;;;;;10395923;28;20315;-84
2022/04/28 17:54:26;;;;;;;4.50;4.20;;;16.40;99.90;;;;;;10399553;28;20229;-81
2022/04/28 18:04:50;;;;;;;5.30;4.90;;;16.20;99.90;;;;;;10371024;28;20689;-82
2022/04/28 18:09:53;;;;;;;4.47;4.17;;;16.10;96.60;;;;;;10399493;28;20597;-83
2022/04/28 18:14:55;;;;;;;5.23;4.80;;;16.20;96.00;;;;;;10415254;28;20198;-83
2022/04/28 18:19:59;;;;;;;4.87;4.57;;;16.20;97.00;;;;;;10413749;28;20662;-84
2022/04/28 18:25:01;;;;;;;5.37;5.07;;;16.20;95.70;;;;;;10408131;28;20816;-81
2022/04/28 18:30:07;;;;;;;5.10;4.80;;;16.20;98.10;;;;;;10381360;28;20272;-81
2022/04/28 18:35:10;;;;;;;7.30;4.93;;;16.10;95.00;;;;;;10396822;28;20209;-80
2022/04/28 18:45:33;;;;;;;5.17;4.77;;;15.90;95.40;;;;;;10413870;28;20223;-81
2022/04/28 18:50:37;;;;;;;4.60;4.33;;;15.80;98.00;;;;;;10394991;28;20217;-83
2022/04/28 18:55:39;;;;;;;4.83;4.53;;;15.70;96.40;;;;;;10375611;28;20201;-83
2022/04/28 19:00:41;;;;;;;5.63;5.13;;;15.60;97.10;;;;;;10397241;28;20225;-82
2022/04/28 19:05:46;;;;;;;4.90;4.60;;;15.50;97.70;;;;;;10385560;28;20237;-83
2022/04/28 19:10:48;;;;;;;6.03;5.63;;;15.40;97.60;;;;;;10425565;28;20222;-82
2022/04/28 19:15:50;;;;;;;6.80;6.30;;;15.40;97.80;;;;;;10405951;28;20198;-83
2022/04/28 19:20:55;;;;;;;9.10;8.03;;;15.30;99.80;;;;;;10421688;28;20292;-80
2022/04/28 19:25:57;;;;;;;12.47;10.07;;;15.20;97.30;;;;;;10405076;28;20230;-82
2022/04/28 19:31:00;;;;;;;26.37;15.37;;;15.10;97.60;;;;;;10403383;28;20252;-84
2022/04/28 19:36:04;;;;;;;18.33;10.43;;;15.00;98.40;;;;;;10421840;28;20293;-83
2022/04/28 19:41:06;;;;;;;26.10;14.60;;;15.00;97.30;;;;;;10407508;28;20249;-82
2022/04/28 19:46:09;;;;;;;14.20;8.80;;;14.90;97.90;;;;;;10413831;28;20245;-83
2022/04/28 19:51:13;;;;;;;29.60;13.70;;;14.80;99.00;;;;;;10420010;28;20222;-83
2022/04/28 19:56:15;;;;;;;15.57;10.07;;;14.80;98.80;;;;;;10420505;28;20292;-83
2022/04/28 20:01:17;;;;;;;9.00;7.23;;;14.70;99.30;;;;;;10403026;28;20222;-82
2022/04/28 20:06:21;;;;;;;21.80;14.27;;;14.60;97.50;;;;;;10414693;28;20221;-83
2022/04/28 20:11:23;;;;;;;7.97;7.27;;;14.60;98.50;;;;;;10405580;28;20293;-81
2022/04/28 20:16:27;;;;;;;5.93;5.47;;;14.50;98.10;;;;;;10406291;28;20210;-82
2022/04/28 20:21:32;;;;;;;6.00;5.60;;;14.40;98.30;;;;;;10419554;28;20301;-81
2022/04/28 20:26:34;;;;;;;6.20;5.80;;;14.30;97.00;;;;;;10402187;28;20232;-83
2022/04/28 20:31:48;;;;;;;5.53;5.00;;;14.30;98.00;;;;;;10644915;23;20312;-82
2022/04/28 20:43:45;;;;;;;;;;;;;;;;;;;;;
2022/04/28 20:49:35;;;;;;;5.70;4.90;;;14.00;99.50;;;;;;10213042;28;20217;-83
2022/04/28 20:54:37;;;;;;;5.20;4.90;;;13.90;98.60;;;;;;10304649;28;20588;-83
2022/04/28 20:59:41;;;;;;;5.93;5.20;;;13.90;98.60;;;;;;10319770;28;20273;-83
2022/04/28 21:04:45;;;;;;;5.57;5.13;;;13.80;99.10;;;;;;10317555;28;20223;-83
2022/04/28 21:15:18;;;;;;;5.73;5.33;;;13.70;99.90;;;;;;10320795;28;20215;-82
2022/04/28 21:20:41;;;;;;;4.90;4.60;;;13.60;99.30;;;;;;10317707;28;20219;-82
2022/04/28 21:26:09;;;;;;;5.30;4.90;;;13.50;99.90;;;;;;10318852;28;20219;-82
2022/04/28 21:31:13;;;;;;;5.70;4.83;;;13.40;99.90;;;;;;10322503;28;20231;-82
2022/04/28 21:36:51;;;;;;;5.97;5.50;;;13.30;99.90;;;;;;10337092;28;20238;-81
2022/04/28 21:42:00;;;;;;;5.60;5.20;;;13.30;99.90;;;;;;10302005;28;20588;-82
2022/04/28 21:47:05;;;;;;;7.97;5.57;;;13.30;99.90;;;;;;10313606;28;20773;-81
2022/04/28 21:52:08;;;;;;;5.97;5.57;;;13.20;99.90;;;;;;10316880;28;20282;-83
2022/04/28 21:57:12;;;;;;;5.97;5.47;;;13.20;99.90;;;;;;10309967;28;20199;-81
2022/04/28 22:02:17;;;;;;;5.30;4.90;;;13.10;99.90;;;;;;10319546;28;20227;-81
2022/04/28 22:12:39;;;;;;;6.27;5.67;;;13.00;99.90;;;;;;10312453;28;20222;-83
2022/04/28 22:17:48;;;;;;;6.10;5.70;;;13.00;99.90;;;;;;10331966;28;20196;-82
2022/04/28 22:22:50;;;;;;;5.50;5.20;;;12.90;99.90;;;;;;10334284;28;20309;-81
2022/04/28 22:27:52;;;;;;;6.00;5.50;;;12.90;99.90;;;;;;10317903;28;20260;-81
2022/04/28 22:32:59;;;;;;;6.00;5.40;;;12.80;99.90;;;;;;10314799;28;20595;-82
2022/04/28 22:38:02;;;;;;;6.00;5.50;;;12.70;99.90;;;;;;10332638;28;20258;-83
2022/04/28 22:43:07;;;;;;;6.33;5.87;;;12.70;99.90;;;;;;10334632;28;20571;-82
2022/04/28 22:48:10;;;;;;;6.27;5.80;;;12.60;99.90;;;;;;10307666;28;20695;-82
2022/04/28 22:53:13;;;;;;;6.30;5.90;;;12.50;99.90;;;;;;10327153;28;20223;-81
2022/04/28 22:58:15;;;;;;;7.47;6.90;;;12.40;99.90;;;;;;10296506;28;20231;-83
2022/04/28 23:03:18;;;;;;;7.43;6.07;;;12.40;99.90;;;;;;10318475;28;20269;-82
2022/04/28 23:08:21;;;;;;;9.77;6.07;;;12.30;99.90;;;;;;10318806;28;20602;-81
2022/04/28 23:13:23;;;;;;;7.40;6.70;;;12.30;99.90;;;;;;10312128;28;20503;-80
2022/04/28 23:18:27;;;;;;;6.30;5.80;;;12.20;99.90;;;;;;10321216;28;20640;-81
2022/04/28 23:23:29;;;;;;;7.00;6.50;;;12.20;99.90;;;;;;10325983;28;20657;-82
2022/04/28 23:28:34;;;;;;;6.83;6.37;;;12.20;99.90;;;;;;10295390;28;20215;-85
2022/04/28 23:33:38;;;;;;;7.17;6.67;;;12.10;99.90;;;;;;10302176;28;20285;-81
2022/04/28 23:38:40;;;;;;;6.57;6.00;;;12.10;99.90;;;;;;10289063;28;20223;-81
2022/04/28 23:43:42;;;;;;;7.97;7.37;;;12.10;99.90;;;;;;10283802;28;20200;-82
2022/04/28 23:48:46;;;;;;;8.70;6.80;;;12.10;99.90;;;;;;10332472;28;20327;-82
2022/04/28 23:59:13;;;;;;;7.10;6.53;;;12.10;99.90;;;;;;10245485;28;20251;-83
